Time;durP1;ratioP1;P1;durP2;ratioP2;P2;SDS_P1;SDS_P2;PMS_P1;PMS_P2;Temp;Humidity;BMP_temperature;BMP_pressure;BME280_temperature;BME280_humidity;BME280_pressure;Samples;Min_cycle;Max_cycle;Signal;HPM_P1;HPM_P2
2021/07/04 00:01:14;;;;;;;11.32;7.20;;;17.60;99.30;;;;;;5034151;28;20101;-68
2021/07/04 00:03:40;;;;;;;10.00;7.05;;;17.50;99.30;;;;;;5031425;28;20438;-68
2021/07/04 00:06:05;;;;;;;8.57;6.47;;;17.60;99.40;;;;;;5026942;28;20025;-69
2021/07/04 00:08:31;;;;;;;9.43;7.75;;;17.60;99.40;;;;;;5048017;28;20399;-68
2021/07/04 00:11:01;;;;;;;9.85;7.15;;;17.60;99.40;;;;;;5033154;28;20510;-68
2021/07/04 00:13:28;;;;;;;11.13;8.00;;;17.60;99.40;;;;;;5032099;28;20523;-68
2021/07/04 00:15:54;;;;;;;9.07;6.63;;;17.60;99.40;;;;;;5032747;28;20515;-68
2021/07/04 00:18:24;;;;;;;8.23;7.40;;;17.60;99.70;;;;;;5028605;28;20040;-68
2021/07/04 00:20:50;;;;;;;14.27;9.07;;;17.60;99.40;;;;;;5031982;28;20026;-68
2021/07/04 00:23:16;;;;;;;9.05;8.15;;;17.60;99.40;;;;;;5031718;28;20099;-68
2021/07/04 00:25:43;;;;;;;10.32;7.93;;;17.60;99.50;;;;;;5033087;28;20045;-68
2021/07/04 00:28:09;;;;;;;11.65;8.05;;;17.60;99.50;;;;;;5032469;28;20017;-68
2021/07/04 00:30:35;;;;;;;9.23;8.27;;;17.60;99.50;;;;;;5033637;28;20026;-68
2021/07/04 00:33:03;;;;;;;10.25;8.82;;;17.60;99.60;;;;;;5031749;28;20029;-68
2021/07/04 00:35:28;;;;;;;9.55;8.35;;;17.60;99.60;;;;;;5028116;28;20031;-68
2021/07/04 00:37:54;;;;;;;9.85;8.38;;;17.60;99.60;;;;;;5029334;28;20430;-68
2021/07/04 00:40:21;;;;;;;9.68;8.35;;;17.60;99.60;;;;;;5033457;28;20448;-68
2021/07/04 00:42:47;;;;;;;10.57;8.25;;;17.60;99.60;;;;;;5033322;28;20045;-68
2021/07/04 00:45:16;;;;;;;9.57;7.70;;;17.60;99.70;;;;;;5033763;28;20380;-68
2021/07/04 00:47:42;;;;;;;8.27;6.88;;;17.60;99.70;;;;;;5032177;28;20041;-68
2021/07/04 00:50:09;;;;;;;8.55;6.95;;;17.60;99.70;;;;;;5027958;28;20034;-68
2021/07/04 00:52:35;;;;;;;7.60;6.13;;;17.60;99.70;;;;;;5025481;28;20417;-68
2021/07/04 00:55:03;;;;;;;8.25;6.43;;;17.60;99.70;;;;;;5032718;28;20038;-68
2021/07/04 00:57:29;;;;;;;8.38;6.72;;;17.60;99.70;;;;;;5032236;28;20033;-68
2021/07/04 00:59:55;;;;;;;9.88;7.38;;;17.60;99.70;;;;;;5032891;28;20029;-68
2021/07/04 01:02:20;;;;;;;8.00;6.55;;;17.60;99.70;;;;;;5030962;28;20111;-68
2021/07/04 01:04:46;;;;;;;10.50;7.50;;;17.60;99.60;;;;;;5031933;28;20021;-68
2021/07/04 01:07:12;;;;;;;9.27;7.47;;;17.60;99.70;;;;;;5031996;28;20052;-68
2021/07/04 01:09:38;;;;;;;9.50;7.25;;;17.60;99.70;;;;;;5032925;28;20379;-68
2021/07/04 01:12:04;;;;;;;8.95;6.80;;;17.60;99.70;;;;;;5030384;28;20056;-68
2021/07/04 01:14:30;;;;;;;9.15;7.38;;;17.60;99.80;;;;;;5040035;28;20046;-68
2021/07/04 01:16:58;;;;;;;8.63;6.43;;;17.50;99.80;;;;;;5031313;28;20034;-68
2021/07/04 01:19:24;;;;;;;9.40;6.55;;;17.50;99.80;;;;;;5029833;28;20025;-68
2021/07/04 01:21:53;;;;;;;10.13;6.53;;;17.50;99.80;;;;;;5029605;28;20480;-68
2021/07/04 01:24:18;;;;;;;11.38;7.30;;;17.40;99.70;;;;;;5032378;28;20427;-68
2021/07/04 01:26:44;;;;;;;9.10;6.95;;;17.40;99.70;;;;;;5022504;28;20037;-68
2021/07/04 01:29:09;;;;;;;11.20;8.10;;;17.30;99.70;;;;;;5032260;28;20037;-68
2021/07/04 01:31:35;;;;;;;9.50;8.05;;;17.20;99.80;;;;;;5028452;28;20086;-68
2021/07/04 01:34:01;;;;;;;9.30;7.50;;;17.20;99.80;;;;;;5031194;28;20045;-68
2021/07/04 01:36:26;;;;;;;9.93;7.63;;;17.10;99.80;;;;;;5032496;28;20033;-68
2021/07/04 01:38:52;;;;;;;9.55;7.70;;;17.10;99.90;;;;;;5029272;28;20032;-68
2021/07/04 01:41:17;;;;;;;13.23;8.85;;;17.00;99.90;;;;;;5034405;28;20041;-68
2021/07/04 01:43:43;;;;;;;13.57;9.02;;;16.90;99.90;;;;;;5034125;28;20030;-68
2021/07/04 01:46:08;;;;;;;13.32;8.10;;;16.90;99.90;;;;;;5027580;28;20021;-68
2021/07/04 01:48:34;;;;;;;11.32;8.35;;;16.80;99.90;;;;;;5034308;28;20026;-68
2021/07/04 01:50:59;;;;;;;16.08;9.10;;;16.80;99.90;;;;;;5035539;28;20040;-68
2021/07/04 01:53:25;;;;;;;12.10;8.05;;;16.80;99.90;;;;;;5033890;28;20098;-68
2021/07/04 01:55:50;;;;;;;14.75;9.27;;;16.70;99.90;;;;;;5035673;28;20038;-68
2021/07/04 01:58:17;;;;;;;21.00;7.80;;;16.70;99.90;;;;;;5036689;28;20105;-68
2021/07/04 02:00:45;;;;;;;15.63;7.25;;;16.70;99.90;;;;;;5025408;28;20034;-68
2021/07/04 02:03:11;;;;;;;22.63;8.30;;;16.80;99.90;;;;;;5029118;28;20044;-68
2021/07/04 02:05:37;;;;;;;13.32;9.23;;;16.70;99.90;;;;;;5036058;28;20021;-68
2021/07/04 02:08:04;;;;;;;12.88;7.75;;;16.80;99.90;;;;;;5035242;28;20579;-68
2021/07/04 02:10:33;;;;;;;11.55;9.43;;;16.80;99.90;;;;;;5034603;28;20536;-68
2021/07/04 02:12:59;;;;;;;12.20;9.35;;;16.80;99.90;;;;;;5035559;28;20037;-68
2021/07/04 02:15:27;;;;;;;15.07;11.07;;;16.80;99.90;;;;;;5035475;28;20038;-68
2021/07/04 02:17:53;;;;;;;13.48;9.50;;;16.70;99.90;;;;;;5034329;28;20178;-68
2021/07/04 02:20:32;;;;;;;9.70;7.95;;;16.70;99.90;;;;;;5030158;28;20559;-68
2021/07/04 02:23:04;;;;;;;13.10;9.55;;;16.80;99.90;;;;;;5033588;28;20483;-68
2021/07/04 02:25:30;;;;;;;;;;;16.80;99.90;;;;;;5036513;28;20025;-68
2021/07/04 02:27:56;;;;;;;11.63;7.47;;;16.80;99.90;;;;;;5035202;28;19915;-68
2021/07/04 02:30:22;;;;;;;9.25;6.53;;;16.80;99.90;;;;;;5023544;28;20153;-68
2021/07/04 02:32:47;;;;;;;13.27;8.75;;;16.80;99.90;;;;;;5025439;28;20357;-66
2021/07/04 02:35:14;;;;;;;9.43;8.02;;;16.90;99.90;;;;;;5026112;28;20128;-68
2021/07/04 02:37:39;;;;;;;11.57;8.05;;;16.90;99.90;;;;;;5032876;28;20479;-68
2021/07/04 02:40:06;;;;;;;9.90;8.80;;;16.90;99.90;;;;;;5035657;28;20040;-68
2021/07/04 02:42:31;;;;;;;10.80;9.13;;;17.00;99.90;;;;;;5033769;28;20080;-68
2021/07/04 02:44:58;;;;;;;13.32;9.77;;;17.00;99.90;;;;;;5034372;28;20025;-68
2021/07/04 02:47:25;;;;;;;12.73;9.35;;;17.00;99.90;;;;;;5034356;28;20017;-68
2021/07/04 02:49:51;;;;;;;11.32;9.38;;;17.10;99.90;;;;;;5031641;28;20117;-68
2021/07/04 02:52:16;;;;;;;14.48;10.05;;;17.10;99.90;;;;;;5030888;28;20113;-69
2021/07/04 02:54:42;;;;;;;16.45;10.27;;;17.10;99.90;;;;;;5033986;28;20036;-68
2021/07/04 02:57:07;;;;;;;13.90;9.32;;;17.20;99.90;;;;;;5034621;28;20110;-68
2021/07/04 02:59:33;;;;;;;13.32;10.10;;;17.10;99.90;;;;;;5035159;28;20029;-68
2021/07/04 03:01:58;;;;;;;14.63;10.10;;;17.10;99.90;;;;;;5033299;28;20029;-69
2021/07/04 03:04:24;;;;;;;11.75;10.02;;;17.10;99.90;;;;;;5034999;28;20116;-69
2021/07/04 03:06:50;;;;;;;19.83;11.65;;;17.10;99.90;;;;;;5033265;28;20028;-69
2021/07/04 03:09:15;;;;;;;10.48;8.45;;;17.10;99.90;;;;;;5033843;28;20025;-68
2021/07/04 03:11:41;;;;;;;11.18;9.23;;;17.10;99.90;;;;;;5032894;28;20629;-68
2021/07/04 03:14:07;;;;;;;13.80;9.23;;;17.00;99.90;;;;;;5033719;28;20090;-68
2021/07/04 03:16:32;;;;;;;8.95;7.50;;;17.00;99.90;;;;;;5033179;28;20025;-68
2021/07/04 03:18:58;;;;;;;9.10;7.80;;;16.90;99.90;;;;;;5034564;28;20025;-68
2021/07/04 03:21:24;;;;;;;10.75;8.63;;;16.90;99.90;;;;;;5028730;28;20458;-69
2021/07/04 03:23:49;;;;;;;12.68;9.95;;;16.90;99.90;;;;;;5029338;28;20029;-68
2021/07/04 03:26:15;;;;;;;15.07;11.98;;;16.90;99.90;;;;;;5034826;28;20104;-68
2021/07/04 03:28:40;;;;;;;11.93;10.48;;;16.90;99.90;;;;;;5029243;28;20025;-68
2021/07/04 03:31:06;;;;;;;13.98;10.35;;;16.90;99.90;;;;;;5022453;28;20076;-68
2021/07/04 03:33:31;;;;;;;15.23;10.85;;;16.90;99.90;;;;;;5031612;28;20120;-69
2021/07/04 03:35:57;;;;;;;15.88;11.82;;;16.90;99.90;;;;;;5033705;28;20034;-68
2021/07/04 03:38:23;;;;;;;14.50;11.68;;;16.90;99.90;;;;;;5020815;28;20030;-68
2021/07/04 03:40:48;;;;;;;15.13;12.40;;;16.90;99.90;;;;;;5034661;28;20036;-68
2021/07/04 03:43:14;;;;;;;17.05;13.50;;;16.90;99.90;;;;;;5032748;28;20033;-68
2021/07/04 03:45:39;;;;;;;15.77;13.27;;;17.00;99.90;;;;;;5033745;28;20387;-67
2021/07/04 03:48:05;;;;;;;17.23;13.95;;;17.00;99.90;;;;;;5032970;28;20424;-68
2021/07/04 03:50:31;;;;;;;18.67;13.43;;;17.00;99.90;;;;;;5032180;28;20064;-68
2021/07/04 03:52:56;;;;;;;15.60;12.95;;;17.10;99.90;;;;;;5028656;28;20029;-68
2021/07/04 03:55:23;;;;;;;16.48;14.30;;;17.10;99.90;;;;;;5034279;28;20029;-68
2021/07/04 03:57:50;;;;;;;15.98;14.00;;;17.10;99.90;;;;;;5033285;28;20439;-68
2021/07/04 04:00:16;;;;;;;21.40;14.43;;;17.20;99.90;;;;;;5033345;28;20029;-68
2021/07/04 04:02:42;;;;;;;15.50;13.77;;;17.20;99.90;;;;;;5030743;28;20029;-68
2021/07/04 04:05:08;;;;;;;18.83;14.32;;;17.20;99.90;;;;;;5033122;28;20044;-68
2021/07/04 04:07:35;;;;;;;16.25;13.35;;;17.30;99.90;;;;;;5033192;28;20030;-68
2021/07/04 04:10:01;;;;;;;18.52;14.70;;;17.30;99.90;;;;;;5034046;28;20064;-67
2021/07/04 04:12:26;;;;;;;17.23;14.90;;;17.30;99.90;;;;;;5032604;28;20052;-67
2021/07/04 04:14:52;;;;;;;16.95;15.15;;;17.40;99.90;;;;;;5033539;28;20495;-67
2021/07/04 04:17:18;;;;;;;17.80;15.35;;;17.40;99.90;;;;;;5031813;28;20491;-68
2021/07/04 04:19:43;;;;;;;17.88;14.75;;;17.40;99.90;;;;;;5032112;28;20454;-67
2021/07/04 04:22:09;;;;;;;17.95;14.13;;;17.50;99.90;;;;;;5028683;28;20022;-67
2021/07/04 04:24:34;;;;;;;22.33;15.48;;;17.50;99.90;;;;;;5021645;28;20502;-67
2021/07/04 04:27:00;;;;;;;19.02;14.38;;;17.50;99.90;;;;;;5031764;28;20040;-67
2021/07/04 04:29:25;;;;;;;19.20;14.43;;;17.50;99.90;;;;;;5032525;28;20537;-67
2021/07/04 04:31:51;;;;;;;19.50;14.60;;;17.60;99.90;;;;;;5032635;28;20026;-67
2021/07/04 04:34:16;;;;;;;17.00;14.07;;;17.60;99.90;;;;;;5030669;28;20042;-67
2021/07/04 04:36:42;;;;;;;18.80;14.52;;;17.60;99.90;;;;;;5027786;28;20025;-68
2021/07/04 04:39:08;;;;;;;21.35;15.45;;;17.70;99.90;;;;;;5031854;28;20029;-68
2021/07/04 04:41:36;;;;;;;16.70;14.60;;;17.70;99.90;;;;;;5019239;28;20021;-69
2021/07/04 04:44:03;;;;;;;17.33;14.43;;;17.70;99.90;;;;;;5023205;28;20148;-67
2021/07/04 04:46:29;;;;;;;21.15;14.82;;;17.70;99.90;;;;;;5030563;28;20032;-67
2021/07/04 04:48:54;;;;;;;17.90;14.88;;;17.80;99.90;;;;;;5030457;28;20022;-67
2021/07/04 04:51:21;;;;;;;18.52;14.73;;;17.80;99.90;;;;;;5032098;28;20017;-67
2021/07/04 04:53:46;;;;;;;20.88;14.65;;;17.80;99.90;;;;;;5028800;28;20387;-67
2021/07/04 04:56:12;;;;;;;16.38;14.20;;;17.80;99.90;;;;;;5031284;28;20590;-67
2021/07/04 04:58:37;;;;;;;16.75;13.80;;;17.80;99.90;;;;;;5027094;28;20034;-68
2021/07/04 05:01:03;;;;;;;22.38;14.77;;;17.90;99.90;;;;;;5018040;28;20037;-67
2021/07/04 05:03:28;;;;;;;20.83;15.50;;;17.90;99.90;;;;;;5022820;28;20088;-67
2021/07/04 05:05:54;;;;;;;15.25;13.52;;;18.00;99.90;;;;;;5031779;28;20488;-67
2021/07/04 05:08:19;;;;;;;16.65;13.73;;;18.20;99.90;;;;;;5027879;28;20025;-68
2021/07/04 05:10:45;;;;;;;15.52;12.57;;;18.30;99.90;;;;;;5031893;28;20045;-67
2021/07/04 05:13:10;;;;;;;17.83;13.75;;;18.40;99.90;;;;;;5027105;28;20041;-67
2021/07/04 05:15:36;;;;;;;15.45;13.52;;;18.40;99.90;;;;;;5027633;28;20046;-67
2021/07/04 05:18:05;;;;;;;18.02;14.10;;;18.50;99.90;;;;;;5028521;28;20487;-67
2021/07/04 05:20:32;;;;;;;16.70;13.88;;;18.50;99.90;;;;;;5037092;28;20053;-67
2021/07/04 05:22:57;;;;;;;21.50;15.93;;;18.70;99.90;;;;;;5035595;28;20030;-67
2021/07/04 05:25:23;;;;;;;23.20;16.00;;;18.80;99.90;;;;;;5031670;28;20033;-67
2021/07/04 05:27:48;;;;;;;21.50;16.52;;;19.00;99.90;;;;;;5034314;28;20057;-67
2021/07/04 05:30:14;;;;;;;24.40;16.13;;;19.10;99.90;;;;;;5027526;28;20104;-67
2021/07/04 05:32:40;;;;;;;22.20;16.23;;;19.30;99.70;;;;;;5036537;28;20037;-67
2021/07/04 05:35:06;;;;;;;23.30;16.55;;;19.40;99.30;;;;;;5036901;28;20032;-68
2021/07/04 05:37:33;;;;;;;22.67;16.27;;;19.40;99.00;;;;;;5035278;28;20034;-67
2021/07/04 05:40:02;;;;;;;23.48;16.40;;;19.40;98.90;;;;;;5036566;28;20026;-67
2021/07/04 05:42:28;;;;;;;24.17;16.70;;;19.50;99.10;;;;;;5030689;28;20030;-67
2021/07/04 05:44:53;;;;;;;23.65;17.10;;;19.70;99.10;;;;;;5034554;28;20032;-67
2021/07/04 05:47:19;;;;;;;24.75;17.70;;;19.90;98.90;;;;;;5032983;28;20379;-67
2021/07/04 05:49:45;;;;;;;24.48;17.85;;;20.10;98.80;;;;;;5035298;28;20476;-67
2021/07/04 05:52:10;;;;;;;26.15;18.70;;;20.40;98.40;;;;;;5019292;28;20112;-67
2021/07/04 05:54:36;;;;;;;28.52;18.92;;;20.40;98.20;;;;;;5031215;28;20496;-67
2021/07/04 05:57:05;;;;;;;24.98;18.85;;;20.50;97.80;;;;;;5033473;28;20062;-67
2021/07/04 05:59:33;;;;;;;28.55;19.50;;;20.60;97.60;;;;;;5029923;28;20025;-67
2021/07/04 06:01:58;;;;;;;26.90;20.92;;;20.60;97.30;;;;;;5019862;28;20103;-67
2021/07/04 06:04:24;;;;;;;31.13;21.20;;;20.60;97.10;;;;;;5022108;28;20057;-67
2021/07/04 06:06:52;;;;;;;29.95;19.98;;;20.70;97.00;;;;;;5019318;28;20538;-67
2021/07/04 06:09:18;;;;;;;28.65;20.25;;;20.60;96.80;;;;;;5027579;28;20025;-67
2021/07/04 06:11:44;;;;;;;31.83;22.83;;;20.60;96.70;;;;;;5035368;28;20029;-67
2021/07/04 06:14:09;;;;;;;30.45;23.38;;;20.60;96.80;;;;;;5035843;28;20048;-67
2021/07/04 06:16:35;;;;;;;31.75;21.70;;;20.60;96.70;;;;;;5034314;28;20034;-67
2021/07/04 06:19:00;;;;;;;30.58;22.80;;;20.50;96.60;;;;;;5034810;28;20514;-66
2021/07/04 06:21:26;;;;;;;31.48;23.83;;;20.60;96.80;;;;;;5036050;28;20033;-67
2021/07/04 06:23:51;;;;;;;34.03;24.42;;;20.70;96.60;;;;;;5035362;28;20372;-67
2021/07/04 06:26:17;;;;;;;33.80;25.77;;;20.70;96.20;;;;;;5034002;28;20499;-67
2021/07/04 06:28:42;;;;;;;31.73;24.98;;;20.60;96.10;;;;;;5035897;28;20032;-67
2021/07/04 06:31:08;;;;;;;34.97;25.45;;;20.50;96.00;;;;;;5034542;28;20034;-67
2021/07/04 06:33:34;;;;;;;34.95;27.63;;;20.40;96.10;;;;;;5033552;28;20036;-67
2021/07/04 06:35:59;;;;;;;34.13;26.60;;;20.40;96.10;;;;;;5034784;28;20036;-67
2021/07/04 06:38:25;;;;;;;35.45;27.35;;;20.40;96.00;;;;;;5035629;28;20025;-67
2021/07/04 06:40:50;;;;;;;36.80;26.95;;;20.40;96.10;;;;;;5031284;28;20029;-67
2021/07/04 06:43:16;;;;;;;43.42;30.45;;;20.40;96.00;;;;;;5026503;28;20356;-67
2021/07/04 06:45:41;;;;;;;38.92;29.88;;;20.50;95.90;;;;;;5032378;28;20440;-67
2021/07/04 06:48:07;;;;;;;38.15;30.17;;;20.40;95.60;;;;;;5019783;28;20551;-67
2021/07/04 06:50:33;;;;;;;37.42;26.73;;;20.40;95.60;;;;;;5025721;28;20049;-67
2021/07/04 06:52:58;;;;;;;38.92;28.58;;;20.30;95.90;;;;;;5033008;28;20414;-67
2021/07/04 06:55:24;;;;;;;36.60;26.85;;;20.40;95.70;;;;;;5034485;28;20064;-67
2021/07/04 06:57:50;;;;;;;38.60;28.90;;;20.40;95.70;;;;;;5017666;28;20037;-67
2021/07/04 07:00:17;;;;;;;39.40;29.02;;;20.50;95.50;;;;;;5024879;28;20028;-66
2021/07/04 07:02:43;;;;;;;39.03;27.50;;;20.40;95.40;;;;;;5019728;28;20089;-66
2021/07/04 07:05:11;;;;;;;39.22;27.17;;;20.40;95.40;;;;;;5027880;28;20494;-66
2021/07/04 07:07:37;;;;;;;40.65;31.48;;;20.50;95.50;;;;;;5033760;28;20415;-66
2021/07/04 07:10:05;;;;;;;39.10;27.60;;;20.60;95.40;;;;;;5031757;28;20052;-67
2021/07/04 07:12:31;;;;;;;43.88;31.70;;;20.60;95.40;;;;;;5023785;28;20065;-67
2021/07/04 07:14:57;;;;;;;36.60;28.00;;;20.70;95.30;;;;;;5029807;28;20411;-67
2021/07/04 07:17:23;;;;;;;39.85;29.50;;;20.70;95.10;;;;;;5034345;28;20025;-67
2021/07/04 07:19:48;;;;;;;44.13;31.35;;;20.70;95.10;;;;;;5034874;28;20021;-67
2021/07/04 07:22:14;;;;;;;37.13;29.17;;;20.70;94.90;;;;;;5032260;28;20037;-67
2021/07/04 07:24:39;;;;;;;45.97;33.00;;;20.70;95.20;;;;;;5034262;28;20064;-67
2021/07/04 07:27:05;;;;;;;41.50;31.38;;;20.80;95.00;;;;;;5032836;28;20022;-67
2021/07/04 07:29:31;;;;;;;37.75;27.92;;;20.90;94.80;;;;;;5021928;28;20097;-67
2021/07/04 07:31:57;;;;;;;38.25;29.27;;;21.10;94.70;;;;;;5032961;28;20025;-67
2021/07/04 07:34:22;;;;;;;39.00;30.58;;;21.30;94.70;;;;;;5028352;28;20479;-67
2021/07/04 07:36:48;;;;;;;42.85;29.92;;;21.50;94.60;;;;;;5032567;28;20457;-67
2021/07/04 07:39:14;;;;;;;37.45;28.50;;;21.80;94.40;;;;;;5031243;28;20495;-67
2021/07/04 07:41:40;;;;;;;37.47;29.05;;;22.00;94.30;;;;;;5029931;28;20030;-67
2021/07/04 07:44:05;;;;;;;37.15;28.98;;;22.20;93.60;;;;;;5024489;28;20392;-67
2021/07/04 07:46:31;;;;;;;39.55;31.27;;;22.30;92.90;;;;;;5022043;28;21317;-67
2021/07/04 07:48:56;;;;;;;40.13;31.50;;;22.40;92.50;;;;;;5027422;28;20029;-67
2021/07/04 07:51:22;;;;;;;35.28;28.33;;;22.40;92.30;;;;;;5022960;28;20034;-67
2021/07/04 07:53:47;;;;;;;44.55;33.95;;;22.50;92.10;;;;;;5023582;28;20432;-67
2021/07/04 07:56:13;;;;;;;38.47;29.60;;;22.50;91.60;;;;;;5025747;28;20053;-67
2021/07/04 07:58:42;;;;;;;41.45;32.30;;;22.60;91.60;;;;;;5031071;28;20032;-67
2021/07/04 08:01:08;;;;;;;35.72;28.35;;;22.70;91.60;;;;;;5032661;28;20429;-67
2021/07/04 08:03:33;;;;;;;35.33;27.52;;;22.80;91.10;;;;;;5029915;28;20567;-67
2021/07/04 08:05:59;;;;;;;36.10;27.05;;;22.90;91.10;;;;;;5030728;28;20096;-67
2021/07/04 08:08:25;;;;;;;39.90;31.25;;;22.90;90.90;;;;;;5016455;28;20093;-67
2021/07/04 08:10:50;;;;;;;37.50;28.75;;;22.80;90.50;;;;;;5015891;28;20439;-67
2021/07/04 08:13:16;;;;;;;34.38;27.08;;;22.70;90.60;;;;;;5016888;28;20047;-67
2021/07/04 08:15:42;;;;;;;38.30;30.75;;;22.50;90.80;;;;;;5043987;28;20041;-67
2021/07/04 08:18:07;;;;;;;36.25;28.77;;;22.30;91.00;;;;;;5031234;28;20048;-67
2021/07/04 08:20:33;;;;;;;40.17;31.50;;;22.00;91.20;;;;;;5033773;28;20083;-67
2021/07/04 08:22:58;;;;;;;37.58;28.73;;;21.90;91.50;;;;;;5016124;28;20066;-67
2021/07/04 08:25:24;;;;;;;39.45;28.83;;;21.90;91.60;;;;;;5025815;28;20064;-67
2021/07/04 08:27:50;;;;;;;41.13;29.67;;;21.80;91.80;;;;;;5033610;28;20052;-67
2021/07/04 08:30:16;;;;;;;43.45;31.67;;;21.80;91.80;;;;;;5033393;28;20029;-67
2021/07/04 08:32:42;;;;;;;43.83;32.95;;;21.80;91.90;;;;;;5033536;28;20112;-67
2021/07/04 08:35:09;;;;;;;46.63;34.53;;;21.90;92.00;;;;;;5032328;28;20480;-67
2021/07/04 08:37:35;;;;;;;43.88;33.35;;;21.90;92.20;;;;;;5033515;28;20079;-67
2021/07/04 08:40:01;;;;;;;44.55;32.75;;;21.90;92.30;;;;;;5033201;28;20041;-67
2021/07/04 08:42:27;;;;;;;41.28;30.27;;;22.10;92.10;;;;;;5033207;28;20053;-67
2021/07/04 08:44:54;;;;;;;38.47;30.92;;;22.30;91.80;;;;;;5032954;28;20492;-67
2021/07/04 08:47:22;;;;;;;38.88;29.88;;;22.60;91.40;;;;;;5033553;28;20112;-67
2021/07/04 08:49:49;;;;;;;40.97;31.58;;;22.70;90.80;;;;;;5032891;28;20483;-67
2021/07/04 08:52:15;;;;;;;39.88;28.85;;;22.80;91.00;;;;;;5033330;28;20387;-67
2021/07/04 08:54:42;;;;;;;44.67;33.88;;;23.00;91.00;;;;;;5032435;28;20442;-67
2021/07/04 08:57:09;;;;;;;39.90;31.02;;;23.50;90.60;;;;;;5021359;28;20080;-67
2021/07/04 08:59:38;;;;;;;38.70;31.67;;;23.80;89.50;;;;;;5031185;28;20100;-67
2021/07/04 09:02:06;;;;;;;37.17;28.75;;;23.80;88.80;;;;;;5023456;28;20033;-67
2021/07/04 09:04:31;;;;;;;42.58;32.25;;;23.80;87.50;;;;;;5023360;28;20391;-67
2021/07/04 09:06:59;;;;;;;39.42;28.60;;;23.90;86.10;;;;;;5019022;28;20018;-67
2021/07/04 09:09:30;;;;;;;37.22;28.17;;;23.90;87.40;;;;;;5031406;28;20025;-67
2021/07/04 09:12:02;;;;;;;38.70;28.60;;;24.00;86.70;;;;;;5033084;28;20514;-67
2021/07/04 09:14:32;;;;;;;41.65;28.80;;;23.90;87.20;;;;;;5032515;28;20411;-68
2021/07/04 09:16:59;;;;;;;39.33;27.60;;;23.80;87.30;;;;;;5031692;28;20037;-67
2021/07/04 09:19:27;;;;;;;36.70;26.10;;;23.80;87.00;;;;;;5027636;28;20021;-67
2021/07/04 09:22:05;;;;;;;31.98;24.02;;;23.60;86.60;;;;;;5031120;28;20483;-67
2021/07/04 09:24:43;;;;;;;33.83;24.58;;;23.30;86.90;;;;;;5032807;28;20018;-67
2021/07/04 09:27:15;;;;;;;35.28;25.23;;;23.00;87.70;;;;;;5026444;28;20104;-67
2021/07/04 09:29:46;;;;;;;;;;;22.70;88.70;;;;;;5017033;28;20420;-67
2021/07/04 09:32:25;;;;;;;27.92;20.52;;;22.50;89.60;;;;;;5020603;28;19909;-67
2021/07/04 09:35:03;;;;;;;32.47;22.80;;;22.40;90.20;;;;;;5031077;28;20029;-67
2021/07/04 09:37:35;;;;;;;36.10;26.63;;;22.40;90.40;;;;;;5031138;28;20044;-67
2021/07/04 09:40:11;;;;;;;;;;;22.50;90.10;;;;;;5031816;28;20083;-67
2021/07/04 09:43:14;;;;;;;32.30;22.52;;;22.70;90.10;;;;;;5027823;28;19921;-67
2021/07/04 09:46:06;;;;;;;30.92;23.73;;;22.90;89.40;;;;;;5030130;28;20073;-67
2021/07/04 09:48:51;;;;;;;36.40;26.77;;;23.10;87.90;;;;;;5030285;28;20032;-67
2021/07/04 09:51:21;;;;;;;39.60;26.90;;;23.20;86.90;;;;;;5024332;28;20476;-67
2021/07/04 09:53:56;;;;;;;34.65;25.85;;;23.20;86.10;;;;;;5022534;28;20041;-67
2021/07/04 09:56:33;;;;;;;34.38;24.63;;;23.20;85.90;;;;;;5027733;28;20022;-67
2021/07/04 09:59:02;;;;;;;29.80;23.48;;;23.40;86.40;;;;;;5014671;28;20026;-67
2021/07/04 10:01:40;;;;;;;33.85;25.17;;;23.60;86.00;;;;;;5031696;28;20021;-67
2021/07/04 10:04:27;;;;;;;32.45;25.40;;;23.90;85.90;;;;;;5033930;28;20030;-67
2021/07/04 10:06:53;;;;;;;28.52;23.25;;;24.00;85.30;;;;;;5042264;28;20099;-67
2021/07/04 10:09:21;;;;;;;40.75;29.30;;;24.00;85.10;;;;;;5033893;28;20430;-67
2021/07/04 10:11:47;;;;;;;32.45;25.67;;;24.10;84.40;;;;;;5032985;28;20489;-68
2021/07/04 10:14:13;;;;;;;38.53;28.50;;;24.30;83.80;;;;;;5025749;28;20480;-67
2021/07/04 10:16:42;;;;;;;31.58;24.25;;;24.40;84.50;;;;;;5035202;28;20132;-67
2021/07/04 10:19:13;;;;;;;31.63;25.05;;;24.40;84.10;;;;;;5035772;28;20480;-68
2021/07/04 10:21:40;;;;;;;32.90;24.60;;;24.50;83.30;;;;;;5032495;28;20091;-68
2021/07/04 10:24:06;;;;;;;34.40;25.55;;;24.60;82.90;;;;;;5034163;28;20039;-67
2021/07/04 10:26:36;;;;;;;36.47;28.13;;;24.60;82.60;;;;;;5034189;28;20040;-68
2021/07/04 10:29:04;;;;;;;35.58;25.52;;;24.60;81.40;;;;;;5018831;28;20033;-67
2021/07/04 10:31:31;;;;;;;29.20;23.77;;;24.60;82.40;;;;;;5031930;28;20431;-67
2021/07/04 10:34:08;;;;;;;36.55;27.02;;;24.70;81.50;;;;;;5025850;28;20190;-67
2021/07/04 10:36:53;;;;;;;30.10;22.40;;;24.80;80.70;;;;;;5027918;28;20539;-67
2021/07/04 10:39:19;;;;;;;28.65;21.60;;;24.90;80.90;;;;;;5035544;28;20092;-67
2021/07/04 10:42:01;;;;;;;29.77;22.98;;;25.10;80.80;;;;;;5034622;28;20368;-67
2021/07/04 10:44:47;;;;;;;27.65;21.30;;;25.20;80.30;;;;;;5015870;28;20033;-67
2021/07/04 10:47:20;;;;;;;27.63;20.90;;;25.30;79.80;;;;;;5028759;28;20490;-67
2021/07/04 10:50:06;;;;;;;27.63;22.48;;;25.20;79.00;;;;;;5034231;28;20029;-67
2021/07/04 10:52:34;;;;;;;30.58;24.13;;;25.10;79.60;;;;;;5029354;28;20042;-67
2021/07/04 10:55:03;;;;;;;28.25;21.20;;;25.00;78.80;;;;;;5033763;28;20519;-67
2021/07/04 10:57:36;;;;;;;28.85;21.40;;;24.90;78.90;;;;;;5036385;28;20029;-68
2021/07/04 11:00:03;;;;;;;26.50;20.88;;;24.80;78.90;;;;;;5055077;28;20037;-67
2021/07/04 11:02:41;;;;;;;32.55;22.83;;;24.80;78.90;;;;;;5033325;28;20036;-67
2021/07/04 11:05:14;;;;;;;29.17;23.40;;;24.90;78.60;;;;;;5015285;28;20068;-67
2021/07/04 11:08:03;;;;;;;28.48;21.10;;;24.90;78.30;;;;;;5044693;28;20067;-68
2021/07/04 11:10:49;;;;;;;31.80;23.75;;;25.10;78.40;;;;;;5033754;28;20033;-68
2021/07/04 11:13:15;;;;;;;24.92;20.67;;;25.20;78.00;;;;;;5028238;28;20080;-66
2021/07/04 11:15:45;;;;;;;28.75;21.70;;;25.40;77.70;;;;;;5032665;28;20053;-65
2021/07/04 11:18:15;;;;;;;31.00;23.77;;;25.60;77.50;;;;;;5033852;28;20017;-65
2021/07/04 11:20:42;;;;;;;30.20;22.00;;;25.80;76.30;;;;;;5034418;28;20021;-65
2021/07/04 11:23:09;;;;;;;27.85;22.05;;;25.90;76.40;;;;;;5031033;28;20025;-65
2021/07/04 11:25:43;;;;;;;23.55;18.58;;;26.00;76.60;;;;;;5032858;28;20064;-66
2021/07/04 11:28:15;;;;;;;26.10;20.33;;;26.10;75.10;;;;;;5027555;28;20017;-65
2021/07/04 11:30:40;;;;;;;24.23;19.42;;;26.10;74.50;;;;;;5032829;28;20032;-65
2021/07/04 11:33:28;;;;;;;24.95;19.20;;;26.10;73.50;;;;;;5034215;28;20025;-66
2021/07/04 11:35:55;;;;;;;21.58;17.45;;;26.30;72.90;;;;;;5034349;28;20104;-66
2021/07/04 11:38:23;;;;;;;19.63;15.63;;;26.40;72.80;;;;;;5033639;28;20454;-66
2021/07/04 11:40:50;;;;;;;18.55;15.10;;;26.60;72.50;;;;;;5033517;28;20040;-66
2021/07/04 11:43:21;;;;;;;18.38;14.48;;;26.80;71.90;;;;;;5028852;28;20037;-66
2021/07/04 11:45:49;;;;;;;18.33;13.68;;;26.90;70.50;;;;;;5033430;28;20416;-66
2021/07/04 11:48:14;;;;;;;14.43;12.43;;;26.70;69.30;;;;;;5033709;28;20040;-66
2021/07/04 11:50:47;;;;;;;15.32;11.75;;;26.60;70.00;;;;;;5028154;28;20021;-66
2021/07/04 11:53:13;;;;;;;15.50;13.50;;;26.50;69.50;;;;;;5029394;28;20053;-66
2021/07/04 11:56:01;;;;;;;20.20;15.02;;;26.50;68.80;;;;;;5031781;28;20068;-66
2021/07/04 11:58:29;;;;;;;14.60;12.52;;;26.60;68.30;;;;;;5030927;28;20029;-66
2021/07/04 12:00:55;;;;;;;14.07;10.95;;;26.70;68.40;;;;;;5030727;28;20626;-67
2021/07/04 12:03:23;;;;;;;14.25;11.05;;;26.70;67.70;;;;;;5029979;28;20036;-66
2021/07/04 12:05:49;;;;;;;12.18;9.98;;;26.70;67.60;;;;;;5030129;28;20476;-66
2021/07/04 12:08:15;;;;;;;14.93;10.43;;;26.70;66.80;;;;;;5030160;28;20032;-66
2021/07/04 12:10:52;;;;;;;12.05;9.27;;;26.80;66.30;;;;;;5028908;28;20025;-67
2021/07/04 12:13:18;;;;;;;13.20;9.88;;;26.90;66.90;;;;;;5026502;28;20037;-67
2021/07/04 12:15:49;;;;;;;12.40;9.45;;;26.80;65.90;;;;;;5031920;28;20041;-67
2021/07/04 12:18:17;;;;;;;17.77;13.60;;;26.70;66.00;;;;;;5032168;28;20079;-67
2021/07/04 12:20:49;;;;;;;16.30;12.20;;;26.80;65.40;;;;;;5032301;28;20396;-66
2021/07/04 12:23:15;;;;;;;15.25;10.85;;;26.70;65.20;;;;;;5032261;28;20033;-67
2021/07/04 12:25:43;;;;;;;13.60;10.27;;;26.80;66.70;;;;;;5031361;28;20401;-67
2021/07/04 12:28:21;;;;;;;15.48;11.85;;;26.90;67.10;;;;;;5030056;28;20026;-67
2021/07/04 12:30:49;;;;;;;13.43;11.30;;;27.00;66.60;;;;;;5031725;28;20022;-67
2021/07/04 12:33:24;;;;;;;17.38;12.98;;;26.90;66.60;;;;;;5031743;28;20021;-67